Time,TemperatureF,DewpointF,PressureIn,WindDirection,WindDirectionDegrees,WindSpeedMPH,WindSpeedGustMPH,Humidity,HourlyPrecipIn,Conditions,Clouds,dailyrainin,SolarRadiationWatts/m^2,SoftwareType,DateUTC
2013-02-02 00:02:00,67.0,33.0,-100.00,South,178,4.0,12.0,28,0.00,,,0.00,197.000000,,2013-02-02 00:02:00,
2013-02-02 00:32:00,61.0,36.0,-100.00,South,178,6.0,11.0,40,0.00,,,0.00,14.000000,,2013-02-02 00:32:00,
2013-02-02 00:42:00,61.0,36.0,-100.00,South,178,6.0,11.0,40,0.00,,,0.00,14.000000,,2013-02-02 00:42:00,
2013-02-02 00:52:00,61.0,36.0,-100.00,South,178,6.0,11.0,40,0.00,,,0.00,14.000000,,2013-02-02 00:52:00,
2013-02-02 01:02:00,61.0,36.0,-100.00,South,178,6.0,11.0,40,0.00,,,0.00,14.000000,,2013-02-02 01:02:00,
2013-02-02 01:32:00,58.0,45.0,-100.00,South,179,7.0,14.0,61,0.00,,,0.00,0.000000,,2013-02-02 01:32:00,
2013-02-02 01:42:00,58.0,45.0,-100.00,South,179,7.0,14.0,61,0.00,,,0.00,0.000000,,2013-02-02 01:42:00,
2013-02-02 01:52:00,58.0,45.0,-100.00,South,179,7.0,14.0,61,0.00,,,0.00,0.000000,,2013-02-02 01:52:00,
2013-02-02 02:01:00,58.0,45.0,-100.00,South,179,7.0,14.0,61,0.00,,,0.00,0.000000,,2013-02-02 02:01:00,
2013-02-02 02:32:00,54.0,42.0,-100.00,South,173,5.0,13.0,63,0.00,,,0.00,0.000000,,2013-02-02 02:32:00,
2013-02-02 02:42:00,54.0,42.0,-100.00,South,173,5.0,13.0,63,0.00,,,0.00,0.000000,,2013-02-02 02:42:00,
2013-02-02 02:52:00,54.0,42.0,-100.00,South,173,5.0,13.0,63,0.00,,,0.00,0.000000,,2013-02-02 02:52:00,
2013-02-02 03:02:00,54.0,42.0,-100.00,South,173,5.0,13.0,63,0.00,,,0.00,0.000000,,2013-02-02 03:02:00,
2013-02-02 03:32:00,50.0,43.0,-100.00,South,177,5.0,9.0,76,0.00,,,-99.99,0.000000,,2013-02-02 03:32:00,
2013-02-02 03:42:00,50.0,43.0,-100.00,South,177,5.0,9.0,76,0.00,,,-99.99,0.000000,,2013-02-02 03:42:00,
2013-02-02 03:52:00,50.0,43.0,-100.00,South,177,5.0,9.0,76,0.00,,,-99.99,0.000000,,2013-02-02 03:52:00,
2013-02-02 04:01:00,50.0,43.0,-100.00,South,177,5.0,9.0,76,0.00,,,-99.99,0.000000,,2013-02-02 04:01:00,
2013-02-02 04:32:00,49.0,45.0,-100.00,South,173,5.0,9.0,85,0.00,,,0.00,0.000000,,2013-02-02 04:32:00,
2013-02-02 04:42:00,49.0,45.0,-100.00,South,173,5.0,9.0,85,0.00,,,0.00,0.000000,,2013-02-02 04:42:00,
2013-02-02 04:52:00,49.0,45.0,-100.00,South,173,5.0,9.0,85,0.00,,,0.00,0.000000,,2013-02-02 04:52:00,
2013-02-02 05:03:00,49.0,45.0,-100.00,South,173,5.0,9.0,85,0.00,,,0.00,0.000000,,2013-02-02 05:03:00,
2013-02-02 05:33:00,46.0,43.0,-100.00,SSE,162,4.0,9.0,89,0.00,,,-99.99,0.000000,,2013-02-02 05:33:00,
2013-02-02 05:42:00,46.0,43.0,-100.00,SSE,162,4.0,9.0,89,0.00,,,-99.99,0.000000,,2013-02-02 05:42:00,
2013-02-02 05:52:00,46.0,43.0,-100.00,SSE,162,4.0,9.0,89,0.00,,,-99.99,0.000000,,2013-02-02 05:52:00,
2013-02-02 06:02:00,46.0,43.0,-100.00,SSE,162,4.0,9.0,89,0.00,,,-99.99,0.000000,,2013-02-02 06:02:00,
2013-02-02 06:32:00,45.0,43.0,-100.00,SE,130,4.0,8.0,92,0.00,,,0.00,0.000000,,2013-02-02 06:32:00,
2013-02-02 06:42:00,45.0,43.0,-100.00,SE,130,4.0,8.0,92,0.00,,,0.00,0.000000,,2013-02-02 06:42:00,
2013-02-02 06:52:00,45.0,43.0,-100.00,SE,130,4.0,8.0,92,0.00,,,0.00,0.000000,,2013-02-02 06:52:00,
2013-02-02 07:02:00,45.0,43.0,-100.00,SE,130,4.0,8.0,92,0.00,,,0.00,0.000000,,2013-02-02 07:02:00,
2013-02-02 07:32:00,44.0,42.0,-100.00,ESE,110,4.0,6.0,94,0.00,,,0.00,0.000000,,2013-02-02 07:32:00,
2013-02-02 07:42:00,44.0,42.0,-100.00,ESE,110,4.0,6.0,94,0.00,,,0.00,0.000000,,2013-02-02 07:42:00,
2013-02-02 07:52:00,44.0,42.0,-100.00,ESE,110,4.0,6.0,94,0.00,,,0.00,0.000000,,2013-02-02 07:52:00,
2013-02-02 08:01:00,44.0,42.0,-100.00,ESE,110,4.0,6.0,94,0.00,,,0.00,0.000000,,2013-02-02 08:01:00,
2013-02-02 08:32:00,44.0,43.0,-100.00,ESE,103,4.0,6.0,95,0.00,,,0.00,0.000000,,2013-02-02 08:32:00,
2013-02-02 08:42:00,44.0,43.0,-100.00,ESE,103,4.0,6.0,95,0.00,,,0.00,0.000000,,2013-02-02 08:42:00,
2013-02-02 08:53:00,44.0,43.0,-100.00,ESE,103,4.0,6.0,95,0.00,,,0.00,0.000000,,2013-02-02 08:53:00,
2013-02-02 09:01:00,44.0,43.0,-100.00,ESE,103,4.0,6.0,95,0.00,,,0.00,0.000000,,2013-02-02 09:01:00,
2013-02-02 09:32:00,43.0,42.0,-100.00,ESE,108,4.0,6.0,95,0.00,,,0.00,0.000000,,2013-02-02 09:32:00,
2013-02-02 09:42:00,43.0,42.0,-100.00,ESE,108,4.0,6.0,95,0.00,,,0.00,0.000000,,2013-02-02 09:42:00,
2013-02-02 09:52:00,43.0,42.0,-100.00,ESE,108,4.0,6.0,95,0.00,,,0.00,0.000000,,2013-02-02 09:52:00,
2013-02-02 10:01:00,43.0,42.0,-100.00,ESE,108,4.0,6.0,95,0.00,,,0.00,0.000000,,2013-02-02 10:01:00,
2013-02-02 10:32:00,42.0,41.0,-100.00,ENE,76,4.0,6.0,96,0.00,,,0.00,0.000000,,2013-02-02 10:32:00,
2013-02-02 10:42:00,42.0,41.0,-100.00,ENE,76,4.0,6.0,96,0.00,,,0.00,0.000000,,2013-02-02 10:42:00,
2013-02-02 10:52:00,42.0,41.0,-100.00,ENE,76,4.0,6.0,96,0.00,,,0.00,0.000000,,2013-02-02 10:52:00,
2013-02-02 11:01:00,42.0,41.0,-100.00,ENE,76,4.0,6.0,96,0.00,,,0.00,0.000000,,2013-02-02 11:01:00,
2013-02-02 11:32:00,42.0,41.0,-100.00,ESE,117,4.0,6.0,96,0.00,,,0.00,0.000000,,2013-02-02 11:32:00,
2013-02-02 11:42:00,42.0,41.0,-100.00,ESE,117,4.0,6.0,96,0.00,,,0.00,0.000000,,2013-02-02 11:42:00,
2013-02-02 11:52:00,42.0,41.0,-100.00,ESE,117,4.0,6.0,96,0.00,,,0.00,0.000000,,2013-02-02 11:52:00,
2013-02-02 12:02:00,42.0,41.0,-100.00,ESE,117,4.0,6.0,96,0.00,,,0.00,0.000000,,2013-02-02 12:02:00,
2013-02-02 12:32:00,41.0,40.0,-100.00,ESE,111,4.0,6.0,97,0.00,,,0.00,0.000000,,2013-02-02 12:32:00,
2013-02-02 12:42:00,41.0,40.0,-100.00,ESE,111,4.0,6.0,97,0.00,,,0.00,0.000000,,2013-02-02 12:42:00,
2013-02-02 12:52:00,41.0,40.0,-100.00,ESE,111,4.0,6.0,97,0.00,,,0.00,0.000000,,2013-02-02 12:52:00,
2013-02-02 13:02:00,41.0,40.0,-100.00,ESE,111,4.0,6.0,97,0.00,,,0.00,0.000000,,2013-02-02 13:02:00,
2013-02-02 13:33:00,40.0,39.0,-100.00,SE,133,4.0,7.0,97,0.00,,,0.00,0.000000,,2013-02-02 13:33:00,
2013-02-02 13:42:00,40.0,39.0,-100.00,SE,133,4.0,7.0,97,0.00,,,0.00,0.000000,,2013-02-02 13:42:00,
2013-02-02 13:52:00,40.0,39.0,-100.00,SE,133,4.0,7.0,97,0.00,,,0.00,0.000000,,2013-02-02 13:52:00,
2013-02-02 14:02:00,40.0,39.0,-100.00,SE,133,4.0,7.0,97,0.00,,,0.00,0.000000,,2013-02-02 14:02:00,
2013-02-02 14:33:00,42.0,41.0,-100.00,SE,138,5.0,7.0,97,0.00,,,0.00,14.000000,,2013-02-02 14:33:00,
2013-02-02 14:42:00,42.0,41.0,-100.00,SE,138,5.0,7.0,97,0.00,,,0.00,14.000000,,2013-02-02 14:42:00,
2013-02-02 14:52:00,42.0,41.0,-100.00,SE,138,5.0,7.0,97,0.00,,,0.00,14.000000,,2013-02-02 14:52:00,
2013-02-02 15:03:00,42.0,41.0,-100.00,SE,138,5.0,7.0,97,0.00,,,0.00,14.000000,,2013-02-02 15:03:00,
2013-02-02 15:33:00,50.0,49.0,-100.00,SSE,148,5.0,10.0,97,0.00,,,0.00,71.000000,,2013-02-02 15:33:00,
2013-02-02 15:42:00,50.0,49.0,-100.00,SSE,148,5.0,10.0,97,0.00,,,0.00,71.000000,,2013-02-02 15:42:00,
2013-02-02 15:52:00,50.0,49.0,-100.00,SSE,148,5.0,10.0,97,0.00,,,0.00,71.000000,,2013-02-02 15:52:00,
2013-02-02 16:03:00,50.0,49.0,-100.00,SSE,148,5.0,10.0,97,0.00,,,0.00,71.000000,,2013-02-02 16:03:00,
2013-02-02 16:32:00,62.0,51.0,-100.00,South,170,6.0,12.0,68,0.00,,,0.00,383.000000,,2013-02-02 16:32:00,
2013-02-02 16:42:00,62.0,51.0,-100.00,South,170,6.0,12.0,68,0.00,,,0.00,383.000000,,2013-02-02 16:42:00,
2013-02-02 16:52:00,62.0,51.0,-100.00,South,170,6.0,12.0,68,0.00,,,0.00,383.000000,,2013-02-02 16:52:00,
2013-02-02 17:02:00,62.0,51.0,-100.00,South,170,6.0,12.0,68,0.00,,,0.00,383.000000,,2013-02-02 17:02:00,
2013-02-02 17:33:00,67.0,53.0,-100.00,South,177,7.0,11.0,61,0.00,,,0.00,390.000000,,2013-02-02 17:33:00,
2013-02-02 17:42:00,67.0,53.0,-100.00,South,177,7.0,11.0,61,0.00,,,0.00,390.000000,,2013-02-02 17:42:00,
2013-02-02 17:52:00,67.0,53.0,-100.00,South,177,7.0,11.0,61,0.00,,,0.00,390.000000,,2013-02-02 17:52:00,
2013-02-02 18:02:00,67.0,53.0,-100.00,South,177,7.0,11.0,61,0.00,,,0.00,390.000000,,2013-02-02 18:02:00,
2013-02-02 18:32:00,69.0,52.0,-100.00,WSW,239,8.0,14.0,55,0.00,,,0.00,589.000000,,2013-02-02 18:32:00,
2013-02-02 18:42:00,69.0,52.0,-100.00,WSW,239,8.0,14.0,55,0.00,,,0.00,589.000000,,2013-02-02 18:42:00,
2013-02-02 18:52:00,69.0,52.0,-100.00,WSW,239,8.0,14.0,55,0.00,,,0.00,589.000000,,2013-02-02 18:52:00,
2013-02-02 19:02:00,69.0,52.0,-100.00,WSW,239,8.0,14.0,55,0.00,,,0.00,589.000000,,2013-02-02 19:02:00,
2013-02-02 19:32:00,70.0,50.0,-100.00,SW,219,7.0,16.0,50,0.00,,,0.00,502.000000,,2013-02-02 19:32:00,
2013-02-02 19:42:00,70.0,50.0,-100.00,SW,219,7.0,16.0,50,0.00,,,0.00,502.000000,,2013-02-02 19:42:00,
2013-02-02 19:52:00,70.0,50.0,-100.00,SW,219,7.0,16.0,50,0.00,,,0.00,502.000000,,2013-02-02 19:52:00,
2013-02-02 20:01:00,70.0,50.0,-100.00,SW,219,7.0,16.0,50,0.00,,,0.00,502.000000,,2013-02-02 20:01:00,
2013-02-02 20:32:00,73.0,49.0,-100.00,SW,218,7.0,12.0,42,0.00,,,0.00,534.000000,,2013-02-02 20:32:00,
2013-02-02 20:42:00,73.0,49.0,-100.00,SW,218,7.0,12.0,42,0.00,,,0.00,534.000000,,2013-02-02 20:42:00,
2013-02-02 20:52:00,73.0,49.0,-100.00,SW,218,7.0,12.0,42,0.00,,,0.00,534.000000,,2013-02-02 20:52:00,
2013-02-02 21:02:00,73.0,49.0,-100.00,SW,218,7.0,12.0,42,0.00,,,0.00,534.000000,,2013-02-02 21:02:00,
2013-02-02 21:32:00,74.0,47.0,-100.00,WSW,253,6.0,12.0,39,0.00,,,0.00,526.000000,,2013-02-02 21:32:00,
2013-02-02 21:42:00,74.0,47.0,-100.00,WSW,253,6.0,12.0,39,0.00,,,0.00,526.000000,,2013-02-02 21:42:00,
2013-02-02 21:52:00,74.0,47.0,-100.00,WSW,253,6.0,12.0,39,0.00,,,0.00,526.000000,,2013-02-02 21:52:00,
2013-02-02 22:02:00,74.0,47.0,-100.00,WSW,253,6.0,12.0,39,0.00,,,0.00,526.000000,,2013-02-02 22:02:00,
2013-02-02 22:32:00,71.0,47.0,-100.00,West,274,4.0,9.0,42,0.00,,,0.00,266.000000,,2013-02-02 22:32:00,
2013-02-02 22:42:00,71.0,47.0,-100.00,West,274,4.0,9.0,42,0.00,,,0.00,266.000000,,2013-02-02 22:42:00,
2013-02-02 22:52:00,71.0,47.0,-100.00,West,274,4.0,9.0,42,0.00,,,0.00,266.000000,,2013-02-02 22:52:00,
2013-02-02 23:02:00,71.0,47.0,-100.00,West,274,4.0,9.0,42,0.00,,,0.00,266.000000,,2013-02-02 23:02:00,
2013-02-02 23:32:00,71.0,50.0,-100.00,WSW,241,3.0,7.0,48,0.00,,,0.00,141.000000,,2013-02-02 23:32:00,
2013-02-02 23:42:00,71.0,50.0,-100.00,WSW,241,3.0,7.0,48,0.00,,,0.00,141.000000,,2013-02-02 23:42:00,
2013-02-02 23:52:00,71.0,50.0,-100.00,WSW,241,3.0,7.0,48,0.00,,,0.00,141.000000,,2013-02-02 23:52:00,